sensor_id;sensor_type;location;lat;lon;timestamp;P1;durP1;ratioP1;P2;durP2;ratioP2
7587;SDS011;3835;48.850;8.938;2022-11-20T00:01:13;17.37;;;15.30;;
7587;SDS011;3835;48.850;8.938;2022-11-20T00:03:42;22.20;;;16.93;;
7587;SDS011;3835;48.850;8.938;2022-11-20T00:06:10;17.43;;;14.77;;
7587;SDS011;3835;48.850;8.938;2022-11-20T00:08:38;15.20;;;13.87;;
7587;SDS011;3835;48.850;8.938;2022-11-20T00:11:05;17.13;;;15.07;;
7587;SDS011;3835;48.850;8.938;2022-11-20T00:13:33;14.57;;;13.20;;
7587;SDS011;3835;48.850;8.938;2022-11-20T00:16:04;15.97;;;14.57;;
7587;SDS011;3835;48.850;8.938;2022-11-20T00:18:33;13.13;;;12.03;;
7587;SDS011;3835;48.850;8.938;2022-11-20T00:21:01;13.47;;;12.60;;
7587;SDS011;3835;48.850;8.938;2022-11-20T00:23:28;15.20;;;13.97;;
7587;SDS011;3835;48.850;8.938;2022-11-20T00:25:55;14.20;;;13.17;;
7587;SDS011;3835;48.850;8.938;2022-11-20T00:28:22;16.40;;;14.63;;
7587;SDS011;3835;48.850;8.938;2022-11-20T00:30:49;16.13;;;14.10;;
7587;SDS011;3835;48.850;8.938;2022-11-20T00:33:17;15.63;;;14.27;;
7587;SDS011;3835;48.850;8.938;2022-11-20T00:35:44;14.30;;;13.30;;
7587;SDS011;3835;48.850;8.938;2022-11-20T00:38:11;15.87;;;14.37;;
7587;SDS011;3835;48.850;8.938;2022-11-20T00:40:37;13.37;;;12.53;;
7587;SDS011;3835;48.850;8.938;2022-11-20T00:43:04;14.63;;;13.83;;
7587;SDS011;3835;48.850;8.938;2022-11-20T00:45:31;14.13;;;13.33;;
7587;SDS011;3835;48.850;8.938;2022-11-20T00:47:58;15.73;;;14.20;;
7587;SDS011;3835;48.850;8.938;2022-11-20T00:50:26;13.60;;;12.80;;
7587;SDS011;3835;48.850;8.938;2022-11-20T00:52:52;14.73;;;13.73;;
7587;SDS011;3835;48.850;8.938;2022-11-20T00:55:19;16.57;;;15.30;;
7587;SDS011;3835;48.850;8.938;2022-11-20T00:57:46;17.30;;;15.93;;
7587;SDS011;3835;48.850;8.938;2022-11-20T01:00:13;22.00;;;18.37;;
7587;SDS011;3835;48.850;8.938;2022-11-20T01:02:40;16.43;;;15.43;;
7587;SDS011;3835;48.850;8.938;2022-11-20T01:05:07;15.07;;;13.77;;
7587;SDS011;3835;48.850;8.938;2022-11-20T01:07:35;15.07;;;13.90;;
7587;SDS011;3835;48.850;8.938;2022-11-20T01:10:02;22.60;;;13.83;;
7587;SDS011;3835;48.850;8.938;2022-11-20T01:12:29;14.63;;;13.40;;
7587;SDS011;3835;48.850;8.938;2022-11-20T01:14:55;13.93;;;13.03;;
7587;SDS011;3835;48.850;8.938;2022-11-20T01:17:22;13.60;;;12.50;;
7587;SDS011;3835;48.850;8.938;2022-11-20T01:19:49;14.83;;;13.73;;
7587;SDS011;3835;48.850;8.938;2022-11-20T01:22:16;15.40;;;14.17;;
7587;SDS011;3835;48.850;8.938;2022-11-20T01:24:44;13.63;;;12.53;;
7587;SDS011;3835;48.850;8.938;2022-11-20T01:27:11;13.87;;;13.07;;
7587;SDS011;3835;48.850;8.938;2022-11-20T01:29:38;15.03;;;13.70;;
7587;SDS011;3835;48.850;8.938;2022-11-20T01:32:04;15.73;;;14.03;;
7587;SDS011;3835;48.850;8.938;2022-11-20T01:34:31;15.10;;;13.80;;
7587;SDS011;3835;48.850;8.938;2022-11-20T01:36:58;16.50;;;15.00;;
7587;SDS011;3835;48.850;8.938;2022-11-20T01:39:25;15.97;;;14.63;;
7587;SDS011;3835;48.850;8.938;2022-11-20T01:41:54;15.13;;;13.77;;
7587;SDS011;3835;48.850;8.938;2022-11-20T01:44:43;16.37;;;14.70;;
7587;SDS011;3835;48.850;8.938;2022-11-20T01:47:16;15.17;;;13.70;;
7587;SDS011;3835;48.850;8.938;2022-11-20T01:49:46;15.50;;;14.17;;
7587;SDS011;3835;48.850;8.938;2022-11-20T01:52:17;14.80;;;13.57;;
7587;SDS011;3835;48.850;8.938;2022-11-20T01:54:50;14.83;;;13.53;;
7587;SDS011;3835;48.850;8.938;2022-11-20T01:57:21;13.97;;;12.93;;
7587;SDS011;3835;48.850;8.938;2022-11-20T01:59:52;14.93;;;13.93;;
7587;SDS011;3835;48.850;8.938;2022-11-20T02:02:22;15.87;;;14.77;;
7587;SDS011;3835;48.850;8.938;2022-11-20T02:04:49;15.53;;;14.30;;
7587;SDS011;3835;48.850;8.938;2022-11-20T02:07:20;15.50;;;14.13;;
7587;SDS011;3835;48.850;8.938;2022-11-20T02:09:48;14.33;;;13.43;;
7587;SDS011;3835;48.850;8.938;2022-11-20T02:12:16;14.10;;;13.03;;
7587;SDS011;3835;48.850;8.938;2022-11-20T02:14:58;14.73;;;13.53;;
7587;SDS011;3835;48.850;8.938;2022-11-20T02:17:25;13.23;;;12.33;;
7587;SDS011;3835;48.850;8.938;2022-11-20T02:19:52;13.67;;;12.93;;
7587;SDS011;3835;48.850;8.938;2022-11-20T02:22:21;14.10;;;13.27;;
7587;SDS011;3835;48.850;8.938;2022-11-20T02:24:53;14.20;;;13.50;;
7587;SDS011;3835;48.850;8.938;2022-11-20T02:27:20;13.83;;;13.13;;
7587;SDS011;3835;48.850;8.938;2022-11-20T02:29:48;13.00;;;12.40;;
7587;SDS011;3835;48.850;8.938;2022-11-20T02:32:18;12.80;;;12.07;;
7587;SDS011;3835;48.850;8.938;2022-11-20T02:34:45;13.63;;;12.93;;
7587;SDS011;3835;48.850;8.938;2022-11-20T02:37:11;13.30;;;12.70;;
7587;SDS011;3835;48.850;8.938;2022-11-20T02:39:39;13.60;;;12.67;;
7587;SDS011;3835;48.850;8.938;2022-11-20T02:42:08;12.57;;;11.97;;
7587;SDS011;3835;48.850;8.938;2022-11-20T02:44:35;13.47;;;12.77;;
7587;SDS011;3835;48.850;8.938;2022-11-20T02:47:01;12.57;;;11.70;;
7587;SDS011;3835;48.850;8.938;2022-11-20T02:49:29;12.33;;;11.77;;
7587;SDS011;3835;48.850;8.938;2022-11-20T02:51:56;12.10;;;11.50;;
7587;SDS011;3835;48.850;8.938;2022-11-20T02:54:22;13.23;;;12.53;;
7587;SDS011;3835;48.850;8.938;2022-11-20T02:56:49;10.80;;;10.23;;
7587;SDS011;3835;48.850;8.938;2022-11-20T02:59:17;11.73;;;10.83;;
7587;SDS011;3835;48.850;8.938;2022-11-20T03:01:44;12.70;;;12.10;;
7587;SDS011;3835;48.850;8.938;2022-11-20T03:04:11;11.63;;;10.93;;
7587;SDS011;3835;48.850;8.938;2022-11-20T03:06:38;12.20;;;11.67;;
7587;SDS011;3835;48.850;8.938;2022-11-20T03:09:05;11.20;;;10.70;;
7587;SDS011;3835;48.850;8.938;2022-11-20T03:11:32;11.23;;;10.73;;
7587;SDS011;3835;48.850;8.938;2022-11-20T03:14:01;13.80;;;12.67;;
7587;SDS011;3835;48.850;8.938;2022-11-20T03:16:30;11.97;;;11.37;;
7587;SDS011;3835;48.850;8.938;2022-11-20T03:18:57;12.67;;;12.13;;
7587;SDS011;3835;48.850;8.938;2022-11-20T03:21:25;13.17;;;12.27;;
7587;SDS011;3835;48.850;8.938;2022-11-20T03:23:53;12.63;;;12.03;;
7587;SDS011;3835;48.850;8.938;2022-11-20T03:26:21;12.43;;;11.93;;
7587;SDS011;3835;48.850;8.938;2022-11-20T03:28:49;14.70;;;13.90;;
7587;SDS011;3835;48.850;8.938;2022-11-20T03:31:19;12.87;;;12.23;;
7587;SDS011;3835;48.850;8.938;2022-11-20T03:33:48;12.37;;;11.83;;
7587;SDS011;3835;48.850;8.938;2022-11-20T03:36:15;14.83;;;14.13;;
7587;SDS011;3835;48.850;8.938;2022-11-20T03:38:44;12.83;;;12.33;;
7587;SDS011;3835;48.850;8.938;2022-11-20T03:41:12;13.90;;;13.23;;
7587;SDS011;3835;48.850;8.938;2022-11-20T03:43:39;13.70;;;13.03;;
7587;SDS011;3835;48.850;8.938;2022-11-20T03:46:07;14.10;;;13.30;;
7587;SDS011;3835;48.850;8.938;2022-11-20T03:48:34;14.47;;;13.70;;
7587;SDS011;3835;48.850;8.938;2022-11-20T03:51:08;15.27;;;14.57;;
7587;SDS011;3835;48.850;8.938;2022-11-20T03:53:36;14.93;;;14.07;;
7587;SDS011;3835;48.850;8.938;2022-11-20T03:56:03;14.90;;;14.20;;
7587;SDS011;3835;48.850;8.938;2022-11-20T03:58:30;14.70;;;13.90;;
7587;SDS011;3835;48.850;8.938;2022-11-20T04:01:03;13.37;;;12.67;;
7587;SDS011;3835;48.850;8.938;2022-11-20T04:03:30;14.60;;;13.80;;
7587;SDS011;3835;48.850;8.938;2022-11-20T04:06:00;14.40;;;13.70;;
7587;SDS011;3835;48.850;8.938;2022-11-20T04:08:29;13.57;;;12.77;;
7587;SDS011;3835;48.850;8.938;2022-11-20T04:10:56;13.33;;;12.73;;
7587;SDS011;3835;48.850;8.938;2022-11-20T04:13:23;11.73;;;11.13;;
7587;SDS011;3835;48.850;8.938;2022-11-20T04:15:49;12.70;;;12.10;;
7587;SDS011;3835;48.850;8.938;2022-11-20T04:18:16;12.37;;;11.77;;
7587;SDS011;3835;48.850;8.938;2022-11-20T04:20:43;12.97;;;12.37;;
7587;SDS011;3835;48.850;8.938;2022-11-20T04:23:10;14.00;;;13.23;;
7587;SDS011;3835;48.850;8.938;2022-11-20T04:25:38;14.07;;;13.37;;
7587;SDS011;3835;48.850;8.938;2022-11-20T04:28:04;13.10;;;12.50;;
7587;SDS011;3835;48.850;8.938;2022-11-20T04:30:31;12.47;;;11.87;;
7587;SDS011;3835;48.850;8.938;2022-11-20T04:32:58;12.63;;;12.03;;
7587;SDS011;3835;48.850;8.938;2022-11-20T04:35:25;12.10;;;11.40;;
7587;SDS011;3835;48.850;8.938;2022-11-20T04:37:52;13.93;;;13.23;;
7587;SDS011;3835;48.850;8.938;2022-11-20T04:40:18;12.83;;;12.13;;
7587;SDS011;3835;48.850;8.938;2022-11-20T04:42:46;14.13;;;13.20;;
7587;SDS011;3835;48.850;8.938;2022-11-20T04:45:13;13.73;;;13.10;;
7587;SDS011;3835;48.850;8.938;2022-11-20T04:47:40;12.60;;;12.00;;
7587;SDS011;3835;48.850;8.938;2022-11-20T04:50:07;13.13;;;12.53;;
7587;SDS011;3835;48.850;8.938;2022-11-20T04:52:34;12.77;;;12.17;;
7587;SDS011;3835;48.850;8.938;2022-11-20T04:55:02;14.10;;;13.13;;
7587;SDS011;3835;48.850;8.938;2022-11-20T04:57:29;13.73;;;12.87;;
7587;SDS011;3835;48.850;8.938;2022-11-20T04:59:57;13.43;;;12.83;;
7587;SDS011;3835;48.850;8.938;2022-11-20T05:02:23;12.77;;;12.17;;
7587;SDS011;3835;48.850;8.938;2022-11-20T05:04:50;13.07;;;12.47;;
7587;SDS011;3835;48.850;8.938;2022-11-20T05:07:17;12.53;;;11.93;;
7587;SDS011;3835;48.850;8.938;2022-11-20T05:09:44;13.07;;;12.43;;
7587;SDS011;3835;48.850;8.938;2022-11-20T05:12:10;14.37;;;13.67;;
7587;SDS011;3835;48.850;8.938;2022-11-20T05:14:37;11.07;;;10.57;;
7587;SDS011;3835;48.850;8.938;2022-11-20T05:17:05;13.00;;;12.40;;
7587;SDS011;3835;48.850;8.938;2022-11-20T05:19:35;12.53;;;11.93;;
7587;SDS011;3835;48.850;8.938;2022-11-20T05:22:02;11.60;;;11.10;;
7587;SDS011;3835;48.850;8.938;2022-11-20T05:24:30;13.47;;;12.87;;
7587;SDS011;3835;48.850;8.938;2022-11-20T05:26:57;12.60;;;12.00;;
7587;SDS011;3835;48.850;8.938;2022-11-20T05:29:23;12.17;;;11.57;;
7587;SDS011;3835;48.850;8.938;2022-11-20T05:31:50;12.03;;;11.53;;
7587;SDS011;3835;48.850;8.938;2022-11-20T05:34:18;11.97;;;11.27;;
7587;SDS011;3835;48.850;8.938;2022-11-20T05:36:45;12.40;;;11.77;;
7587;SDS011;3835;48.850;8.938;2022-11-20T05:39:12;12.10;;;11.60;;
7587;SDS011;3835;48.850;8.938;2022-11-20T05:41:38;13.17;;;12.57;;
7587;SDS011;3835;48.850;8.938;2022-11-20T05:44:05;12.70;;;12.10;;
7587;SDS011;3835;48.850;8.938;2022-11-20T05:46:32;11.83;;;11.23;;
7587;SDS011;3835;48.850;8.938;2022-11-20T05:48:59;12.90;;;12.20;;
7587;SDS011;3835;48.850;8.938;2022-11-20T05:51:27;12.53;;;11.93;;
7587;SDS011;3835;48.850;8.938;2022-11-20T05:53:55;13.20;;;12.50;;
7587;SDS011;3835;48.850;8.938;2022-11-20T05:56:23;12.50;;;12.00;;
7587;SDS011;3835;48.850;8.938;2022-11-20T05:58:50;11.83;;;11.30;;
7587;SDS011;3835;48.850;8.938;2022-11-20T06:01:17;13.30;;;12.60;;
7587;SDS011;3835;48.850;8.938;2022-11-20T06:03:45;11.67;;;11.17;;
7587;SDS011;3835;48.850;8.938;2022-11-20T06:06:15;12.03;;;11.53;;
7587;SDS011;3835;48.850;8.938;2022-11-20T06:08:44;12.17;;;11.57;;
7587;SDS011;3835;48.850;8.938;2022-11-20T06:11:11;12.83;;;12.17;;
7587;SDS011;3835;48.850;8.938;2022-11-20T06:13:40;12.60;;;11.90;;
7587;SDS011;3835;48.850;8.938;2022-11-20T06:16:07;13.10;;;12.30;;
7587;SDS011;3835;48.850;8.938;2022-11-20T06:18:34;12.43;;;11.73;;
7587;SDS011;3835;48.850;8.938;2022-11-20T06:21:02;12.20;;;11.50;;
7587;SDS011;3835;48.850;8.938;2022-11-20T06:23:30;13.33;;;12.43;;
7587;SDS011;3835;48.850;8.938;2022-11-20T06:26:02;11.90;;;11.30;;
7587;SDS011;3835;48.850;8.938;2022-11-20T06:28:29;13.10;;;12.30;;
7587;SDS011;3835;48.850;8.938;2022-11-20T06:30:56;14.00;;;13.17;;
7587;SDS011;3835;48.850;8.938;2022-11-20T06:33:23;13.70;;;12.80;;
7587;SDS011;3835;48.850;8.938;2022-11-20T06:35:50;13.50;;;12.80;;
7587;SDS011;3835;48.850;8.938;2022-11-20T06:38:18;11.70;;;11.00;;
7587;SDS011;3835;48.850;8.938;2022-11-20T06:40:44;12.47;;;11.77;;
7587;SDS011;3835;48.850;8.938;2022-11-20T06:43:12;13.00;;;12.30;;
7587;SDS011;3835;48.850;8.938;2022-11-20T06:45:39;12.27;;;11.67;;
7587;SDS011;3835;48.850;8.938;2022-11-20T06:48:06;12.97;;;12.17;;
7587;SDS011;3835;48.850;8.938;2022-11-20T06:50:33;13.00;;;12.40;;
7587;SDS011;3835;48.850;8.938;2022-11-20T06:53:00;12.47;;;11.87;;
7587;SDS011;3835;48.850;8.938;2022-11-20T06:55:28;13.17;;;12.53;;
7587;SDS011;3835;48.850;8.938;2022-11-20T06:57:55;13.77;;;12.97;;
7587;SDS011;3835;48.850;8.938;2022-11-20T07:00:23;14.07;;;13.23;;
7587;SDS011;3835;48.850;8.938;2022-11-20T07:02:50;14.67;;;13.83;;
7587;SDS011;3835;48.850;8.938;2022-11-20T07:05:17;14.30;;;13.70;;
7587;SDS011;3835;48.850;8.938;2022-11-20T07:07:44;15.03;;;14.27;;
7587;SDS011;3835;48.850;8.938;2022-11-20T07:10:11;14.33;;;13.63;;
7587;SDS011;3835;48.850;8.938;2022-11-20T07:12:38;16.50;;;15.60;;
7587;SDS011;3835;48.850;8.938;2022-11-20T07:15:06;15.00;;;14.30;;
7587;SDS011;3835;48.850;8.938;2022-11-20T07:17:34;15.83;;;14.83;;
7587;SDS011;3835;48.850;8.938;2022-11-20T07:20:01;17.33;;;16.00;;
7587;SDS011;3835;48.850;8.938;2022-11-20T07:22:28;16.70;;;15.70;;
7587;SDS011;3835;48.850;8.938;2022-11-20T07:24:55;14.17;;;13.57;;
7587;SDS011;3835;48.850;8.938;2022-11-20T07:27:21;14.23;;;13.63;;
7587;SDS011;3835;48.850;8.938;2022-11-20T07:29:48;14.27;;;13.60;;
7587;SDS011;3835;48.850;8.938;2022-11-20T07:32:15;13.27;;;12.47;;
7587;SDS011;3835;48.850;8.938;2022-11-20T07:34:43;14.03;;;13.23;;
7587;SDS011;3835;48.850;8.938;2022-11-20T07:37:10;14.37;;;13.40;;
7587;SDS011;3835;48.850;8.938;2022-11-20T07:39:37;12.17;;;11.47;;
7587;SDS011;3835;48.850;8.938;2022-11-20T07:42:03;11.83;;;11.23;;
7587;SDS011;3835;48.850;8.938;2022-11-20T07:44:31;10.70;;;10.30;;
7587;SDS011;3835;48.850;8.938;2022-11-20T07:46:58;11.60;;;11.07;;
7587;SDS011;3835;48.850;8.938;2022-11-20T07:49:25;10.70;;;10.20;;
7587;SDS011;3835;48.850;8.938;2022-11-20T07:51:53;11.07;;;10.57;;
7587;SDS011;3835;48.850;8.938;2022-11-20T07:54:20;12.50;;;11.73;;
7587;SDS011;3835;48.850;8.938;2022-11-20T07:56:47;11.97;;;11.33;;
7587;SDS011;3835;48.850;8.938;2022-11-20T07:59:14;12.73;;;12.20;;
7587;SDS011;3835;48.850;8.938;2022-11-20T08:01:42;12.37;;;11.83;;
7587;SDS011;3835;48.850;8.938;2022-11-20T08:04:09;12.90;;;12.20;;
7587;SDS011;3835;48.850;8.938;2022-11-20T08:06:36;11.10;;;10.63;;
7587;SDS011;3835;48.850;8.938;2022-11-20T08:09:04;12.83;;;12.23;;
7587;SDS011;3835;48.850;8.938;2022-11-20T08:11:31;13.27;;;12.67;;
7587;SDS011;3835;48.850;8.938;2022-11-20T08:14:15;12.10;;;11.57;;
7587;SDS011;3835;48.850;8.938;2022-11-20T08:16:42;11.00;;;10.60;;
7587;SDS011;3835;48.850;8.938;2022-11-20T08:19:10;12.53;;;12.03;;
7587;SDS011;3835;48.850;8.938;2022-11-20T08:21:37;12.20;;;11.70;;
7587;SDS011;3835;48.850;8.938;2022-11-20T08:24:06;11.40;;;10.90;;
7587;SDS011;3835;48.850;8.938;2022-11-20T08:26:33;11.60;;;11.10;;
7587;SDS011;3835;48.850;8.938;2022-11-20T08:29:01;11.73;;;11.23;;
7587;SDS011;3835;48.850;8.938;2022-11-20T08:31:29;12.07;;;11.57;;
7587;SDS011;3835;48.850;8.938;2022-11-20T08:33:56;10.97;;;10.47;;
7587;SDS011;3835;48.850;8.938;2022-11-20T08:36:23;11.57;;;11.07;;
7587;SDS011;3835;48.850;8.938;2022-11-20T08:38:51;11.67;;;11.17;;
7587;SDS011;3835;48.850;8.938;2022-11-20T08:41:20;11.50;;;10.93;;
7587;SDS011;3835;48.850;8.938;2022-11-20T08:43:51;12.50;;;12.00;;
7587;SDS011;3835;48.850;8.938;2022-11-20T08:46:19;12.23;;;11.73;;
7587;SDS011;3835;48.850;8.938;2022-11-20T08:48:46;12.20;;;11.70;;
7587;SDS011;3835;48.850;8.938;2022-11-20T08:51:13;12.33;;;11.83;;
7587;SDS011;3835;48.850;8.938;2022-11-20T08:53:40;13.53;;;12.73;;
7587;SDS011;3835;48.850;8.938;2022-11-20T08:56:07;10.87;;;10.27;;
7587;SDS011;3835;48.850;8.938;2022-11-20T08:58:37;12.93;;;12.23;;
7587;SDS011;3835;48.850;8.938;2022-11-20T09:01:04;16.03;;;14.80;;
7587;SDS011;3835;48.850;8.938;2022-11-20T09:03:31;18.33;;;16.63;;
7587;SDS011;3835;48.850;8.938;2022-11-20T09:05:58;32.73;;;23.80;;
7587;SDS011;3835;48.850;8.938;2022-11-20T09:08:26;20.13;;;18.33;;
7587;SDS011;3835;48.850;8.938;2022-11-20T09:10:53;16.10;;;15.20;;
7587;SDS011;3835;48.850;8.938;2022-11-20T09:13:22;22.27;;;20.67;;
7587;SDS011;3835;48.850;8.938;2022-11-20T09:15:53;14.00;;;13.13;;
7587;SDS011;3835;48.850;8.938;2022-11-20T09:18:21;11.53;;;11.03;;
7587;SDS011;3835;48.850;8.938;2022-11-20T09:20:48;11.97;;;11.47;;
7587;SDS011;3835;48.850;8.938;2022-11-20T09:23:16;11.53;;;11.03;;
7587;SDS011;3835;48.850;8.938;2022-11-20T09:25:43;12.87;;;12.17;;
7587;SDS011;3835;48.850;8.938;2022-11-20T09:28:10;11.60;;;11.10;;
7587;SDS011;3835;48.850;8.938;2022-11-20T09:30:36;10.57;;;10.17;;
7587;SDS011;3835;48.850;8.938;2022-11-20T09:33:05;11.57;;;11.07;;
7587;SDS011;3835;48.850;8.938;2022-11-20T09:35:32;12.03;;;11.50;;
7587;SDS011;3835;48.850;8.938;2022-11-20T09:38:03;10.87;;;10.47;;
7587;SDS011;3835;48.850;8.938;2022-11-20T09:40:31;11.27;;;10.77;;
7587;SDS011;3835;48.850;8.938;2022-11-20T09:43:01;12.47;;;11.87;;
7587;SDS011;3835;48.850;8.938;2022-11-20T09:45:37;11.07;;;10.57;;
7587;SDS011;3835;48.850;8.938;2022-11-20T09:48:28;12.60;;;12.00;;
7587;SDS011;3835;48.850;8.938;2022-11-20T09:51:05;13.13;;;12.33;;
7587;SDS011;3835;48.850;8.938;2022-11-20T09:53:41;14.00;;;12.93;;
7587;SDS011;3835;48.850;8.938;2022-11-20T09:56:17;13.03;;;12.13;;
7587;SDS011;3835;48.850;8.938;2022-11-20T09:58:47;12.93;;;12.33;;
7587;SDS011;3835;48.850;8.938;2022-11-20T10:01:17;12.20;;;11.53;;
7587;SDS011;3835;48.850;8.938;2022-11-20T10:03:49;12.97;;;12.27;;
7587;SDS011;3835;48.850;8.938;2022-11-20T10:06:21;13.47;;;12.57;;
7587;SDS011;3835;48.850;8.938;2022-11-20T10:08:55;12.27;;;11.57;;
7587;SDS011;3835;48.850;8.938;2022-11-20T10:11:32;13.20;;;12.43;;
7587;SDS011;3835;48.850;8.938;2022-11-20T10:14:13;12.43;;;11.83;;
7587;SDS011;3835;48.850;8.938;2022-11-20T10:16:50;12.27;;;11.63;;
7587;SDS011;3835;48.850;8.938;2022-11-20T10:19:30;11.97;;;11.30;;
7587;SDS011;3835;48.850;8.938;2022-11-20T10:22:11;13.03;;;12.23;;
7587;SDS011;3835;48.850;8.938;2022-11-20T10:24:48;11.83;;;11.33;;
7587;SDS011;3835;48.850;8.938;2022-11-20T10:27:27;12.43;;;11.93;;
7587;SDS011;3835;48.850;8.938;2022-11-20T10:30:08;12.70;;;12.00;;
7587;SDS011;3835;48.850;8.938;2022-11-20T10:32:37;12.73;;;12.17;;
7587;SDS011;3835;48.850;8.938;2022-11-20T10:35:13;11.73;;;11.03;;
7587;SDS011;3835;48.850;8.938;2022-11-20T10:37:46;12.77;;;11.83;;
7587;SDS011;3835;48.850;8.938;2022-11-20T10:40:20;12.50;;;12.00;;
7587;SDS011;3835;48.850;8.938;2022-11-20T10:42:54;12.80;;;12.10;;
7587;SDS011;3835;48.850;8.938;2022-11-20T10:45:31;13.53;;;12.63;;
7587;SDS011;3835;48.850;8.938;2022-11-20T10:48:14;12.60;;;11.87;;
7587;SDS011;3835;48.850;8.938;2022-11-20T10:50:47;13.63;;;12.83;;
7587;SDS011;3835;48.850;8.938;2022-11-20T10:53:27;14.60;;;13.77;;
7587;SDS011;3835;48.850;8.938;2022-11-20T10:56:04;13.50;;;12.90;;
7587;SDS011;3835;48.850;8.938;2022-11-20T10:58:37;12.77;;;12.17;;
7587;SDS011;3835;48.850;8.938;2022-11-20T11:01:13;11.03;;;10.53;;
7587;SDS011;3835;48.850;8.938;2022-11-20T11:03:41;13.83;;;13.10;;
7587;SDS011;3835;48.850;8.938;2022-11-20T11:06:12;12.00;;;11.30;;
7587;SDS011;3835;48.850;8.938;2022-11-20T11:08:46;12.53;;;11.93;;
7587;SDS011;3835;48.850;8.938;2022-11-20T11:11:18;12.47;;;11.87;;
7587;SDS011;3835;48.850;8.938;2022-11-20T11:13:48;12.50;;;11.80;;
7587;SDS011;3835;48.850;8.938;2022-11-20T11:16:19;11.97;;;11.37;;
7587;SDS011;3835;48.850;8.938;2022-11-20T11:18:47;13.03;;;12.43;;
7587;SDS011;3835;48.850;8.938;2022-11-20T11:21:21;11.83;;;11.23;;
7587;SDS011;3835;48.850;8.938;2022-11-20T11:23:56;11.87;;;11.27;;
7587;SDS011;3835;48.850;8.938;2022-11-20T11:26:25;12.80;;;11.90;;
7587;SDS011;3835;48.850;8.938;2022-11-20T11:28:53;12.03;;;11.53;;
7587;SDS011;3835;48.850;8.938;2022-11-20T11:31:24;12.47;;;11.90;;
7587;SDS011;3835;48.850;8.938;2022-11-20T11:33:52;13.03;;;12.33;;
7587;SDS011;3835;48.850;8.938;2022-11-20T11:36:30;12.80;;;12.27;;
7587;SDS011;3835;48.850;8.938;2022-11-20T11:38:59;12.97;;;12.17;;
7587;SDS011;3835;48.850;8.938;2022-11-20T11:41:28;13.67;;;12.90;;
7587;SDS011;3835;48.850;8.938;2022-11-20T11:44:00;12.43;;;11.83;;
7587;SDS011;3835;48.850;8.938;2022-11-20T11:46:49;14.70;;;13.90;;
7587;SDS011;3835;48.850;8.938;2022-11-20T11:49:20;12.60;;;12.03;;
7587;SDS011;3835;48.850;8.938;2022-11-20T11:51:56;12.20;;;11.60;;
7587;SDS011;3835;48.850;8.938;2022-11-20T11:54:30;12.47;;;11.77;;
7587;SDS011;3835;48.850;8.938;2022-11-20T11:57:04;14.50;;;13.80;;
7587;SDS011;3835;48.850;8.938;2022-11-20T11:59:39;13.57;;;12.87;;
7587;SDS011;3835;48.850;8.938;2022-11-20T12:02:15;14.57;;;13.30;;
7587;SDS011;3835;48.850;8.938;2022-11-20T12:04:57;13.97;;;13.23;;
7587;SDS011;3835;48.850;8.938;2022-11-20T12:07:32;13.27;;;12.57;;
7587;SDS011;3835;48.850;8.938;2022-11-20T12:10:12;12.93;;;12.23;;
7587;SDS011;3835;48.850;8.938;2022-11-20T12:12:44;13.63;;;12.70;;
7587;SDS011;3835;48.850;8.938;2022-11-20T12:15:16;12.93;;;12.33;;
7587;SDS011;3835;48.850;8.938;2022-11-20T12:17:54;12.53;;;11.83;;
7587;SDS011;3835;48.850;8.938;2022-11-20T12:20:21;12.73;;;12.13;;
7587;SDS011;3835;48.850;8.938;2022-11-20T12:22:53;13.07;;;12.20;;
7587;SDS011;3835;48.850;8.938;2022-11-20T12:25:26;13.40;;;12.80;;
7587;SDS011;3835;48.850;8.938;2022-11-20T12:28:05;13.60;;;12.80;;
7587;SDS011;3835;48.850;8.938;2022-11-20T12:30:48;15.20;;;14.40;;
7587;SDS011;3835;48.850;8.938;2022-11-20T12:33:42;13.60;;;13.00;;
7587;SDS011;3835;48.850;8.938;2022-11-20T12:36:24;14.43;;;13.53;;
7587;SDS011;3835;48.850;8.938;2022-11-20T12:39:05;12.60;;;11.43;;
7587;SDS011;3835;48.850;8.938;2022-11-20T12:41:46;11.43;;;10.77;;
7587;SDS011;3835;48.850;8.938;2022-11-20T12:44:46;12.43;;;11.80;;
7587;SDS011;3835;48.850;8.938;2022-11-20T12:47:49;11.90;;;11.30;;
7587;SDS011;3835;48.850;8.938;2022-11-20T12:50:37;13.70;;;12.73;;
7587;SDS011;3835;48.850;8.938;2022-11-20T12:53:18;12.17;;;11.37;;
7587;SDS011;3835;48.850;8.938;2022-11-20T12:55:55;11.87;;;10.97;;
7587;SDS011;3835;48.850;8.938;2022-11-20T12:58:30;11.63;;;10.70;;
7587;SDS011;3835;48.850;8.938;2022-11-20T13:01:07;11.67;;;11.07;;
7587;SDS011;3835;48.850;8.938;2022-11-20T13:04:03;12.37;;;11.67;;
7587;SDS011;3835;48.850;8.938;2022-11-20T13:06:38;12.67;;;11.83;;
7587;SDS011;3835;48.850;8.938;2022-11-20T13:09:06;12.30;;;11.47;;
7587;SDS011;3835;48.850;8.938;2022-11-20T13:11:40;12.43;;;11.83;;
7587;SDS011;3835;48.850;8.938;2022-11-20T13:14:17;13.23;;;12.17;;
7587;SDS011;3835;48.850;8.938;2022-11-20T13:16:57;12.13;;;11.53;;
7587;SDS011;3835;48.850;8.938;2022-11-20T13:19:28;12.83;;;11.93;;
7587;SDS011;3835;48.850;8.938;2022-11-20T13:21:55;12.30;;;11.50;;
7587;SDS011;3835;48.850;8.938;2022-11-20T13:24:24;12.57;;;12.03;;
7587;SDS011;3835;48.850;8.938;2022-11-20T13:30:02;12.03;;;11.50;;
7587;SDS011;3835;48.850;8.938;2022-11-20T13:32:47;11.90;;;11.40;;
7587;SDS011;3835;48.850;8.938;2022-11-20T13:35:23;13.33;;;12.73;;
7587;SDS011;3835;48.850;8.938;2022-11-20T13:37:59;13.57;;;12.97;;
7587;SDS011;3835;48.850;8.938;2022-11-20T13:40:27;13.27;;;12.50;;
7587;SDS011;3835;48.850;8.938;2022-11-20T13:43:00;12.17;;;11.53;;
7587;SDS011;3835;48.850;8.938;2022-11-20T13:45:30;12.93;;;12.13;;
7587;SDS011;3835;48.850;8.938;2022-11-20T13:47:59;10.73;;;10.33;;
7587;SDS011;3835;48.850;8.938;2022-11-20T13:50:39;12.73;;;12.23;;
7587;SDS011;3835;48.850;8.938;2022-11-20T13:53:16;12.60;;;11.90;;
7587;SDS011;3835;48.850;8.938;2022-11-20T13:55:54;11.47;;;10.97;;
7587;SDS011;3835;48.850;8.938;2022-11-20T13:58:29;11.87;;;11.37;;
7587;SDS011;3835;48.850;8.938;2022-11-20T14:01:08;10.77;;;10.27;;
7587;SDS011;3835;48.850;8.938;2022-11-20T14:03:36;11.50;;;10.90;;
7587;SDS011;3835;48.850;8.938;2022-11-20T14:06:05;12.27;;;11.23;;
7587;SDS011;3835;48.850;8.938;2022-11-20T14:08:39;11.47;;;10.70;;
7587;SDS011;3835;48.850;8.938;2022-11-20T14:11:13;10.43;;;9.93;;
7587;SDS011;3835;48.850;8.938;2022-11-20T14:13:52;11.40;;;10.93;;
7587;SDS011;3835;48.850;8.938;2022-11-20T14:16:22;10.60;;;10.13;;
7587;SDS011;3835;48.850;8.938;2022-11-20T14:18:49;12.63;;;11.93;;
7587;SDS011;3835;48.850;8.938;2022-11-20T14:21:23;11.80;;;11.20;;
7587;SDS011;3835;48.850;8.938;2022-11-20T14:24:02;11.30;;;10.70;;
7587;SDS011;3835;48.850;8.938;2022-11-20T14:26:30;12.17;;;11.57;;
7587;SDS011;3835;48.850;8.938;2022-11-20T14:28:58;12.07;;;11.57;;
7587;SDS011;3835;48.850;8.938;2022-11-20T14:31:26;12.80;;;12.20;;
7587;SDS011;3835;48.850;8.938;2022-11-20T14:33:53;13.13;;;12.33;;
7587;SDS011;3835;48.850;8.938;2022-11-20T14:36:22;14.17;;;13.30;;
7587;SDS011;3835;48.850;8.938;2022-11-20T14:38:50;12.77;;;12.07;;
7587;SDS011;3835;48.850;8.938;2022-11-20T14:41:19;13.57;;;12.87;;
7587;SDS011;3835;48.850;8.938;2022-11-20T14:43:47;13.43;;;12.60;;
7587;SDS011;3835;48.850;8.938;2022-11-20T14:46:20;12.07;;;11.47;;
7587;SDS011;3835;48.850;8.938;2022-11-20T14:48:49;13.83;;;13.07;;
7587;SDS011;3835;48.850;8.938;2022-11-20T14:51:23;12.43;;;11.83;;
7587;SDS011;3835;48.850;8.938;2022-11-20T14:53:55;14.73;;;13.97;;
7587;SDS011;3835;48.850;8.938;2022-11-20T14:56:22;13.07;;;12.47;;
7587;SDS011;3835;48.850;8.938;2022-11-20T14:58:56;13.50;;;12.80;;
7587;SDS011;3835;48.850;8.938;2022-11-20T15:01:28;19.70;;;16.43;;
7587;SDS011;3835;48.850;8.938;2022-11-20T15:04:00;14.73;;;13.63;;
7587;SDS011;3835;48.850;8.938;2022-11-20T15:06:30;14.67;;;13.57;;
7587;SDS011;3835;48.850;8.938;2022-11-20T15:08:57;13.27;;;12.63;;